Time;durP1;ratioP1;P1;durP2;ratioP2;P2;SDS_P1;SDS_P2;PMS_P1;PMS_P2;Temp;Humidity;BMP_temperature;BMP_pressure;BME280_temperature;BME280_humidity;BME280_pressure;Samples;Min_cycle;Max_cycle;Signal;HPM_P1;HPM_P2
2023/02/27 00:00:39;;;;;;;4.97;3.53;;;-1.60;94.60;;;;;;5051197;28;20029;-78
2023/02/27 00:03:05;;;;;;;7.18;3.97;;;-1.60;94.60;;;;;;5053529;28;20040;-77
2023/02/27 00:05:31;;;;;;;5.82;3.50;;;-1.60;94.50;;;;;;5068994;28;20035;-77
2023/02/27 00:07:56;;;;;;;8.63;5.18;;;-1.60;94.30;;;;;;5053186;28;20021;-77
2023/02/27 00:10:22;;;;;;;4.22;3.22;;;-1.60;94.20;;;;;;5053862;28;20086;-78
2023/02/27 00:12:48;;;;;;;5.28;2.55;;;-1.60;94.30;;;;;;5053249;28;20108;-76
2023/02/27 00:15:19;;;;;;;6.75;4.00;;;-1.70;94.10;;;;;;5052678;28;20091;-78
2023/02/27 00:17:48;;;;;;;5.63;3.85;;;-1.70;94.20;;;;;;5052852;28;20035;-77
2023/02/27 00:20:15;;;;;;;5.25;3.88;;;-1.80;94.10;;;;;;5052944;28;20029;-78
2023/02/27 00:22:42;;;;;;;6.50;3.97;;;-1.80;94.20;;;;;;5051667;28;20021;-77
2023/02/27 00:25:08;;;;;;;6.88;5.13;;;-1.90;94.20;;;;;;5056764;28;20025;-77
2023/02/27 00:27:35;;;;;;;6.95;3.58;;;-1.90;94.30;;;;;;5055631;28;20385;-78
2023/02/27 00:30:07;;;;;;;7.75;4.18;;;-1.80;94.50;;;;;;5054088;28;20382;-77
2023/02/27 00:32:35;;;;;;;5.53;4.15;;;-1.80;94.60;;;;;;5053204;28;20033;-77
2023/02/27 00:35:03;;;;;;;4.10;3.05;;;-1.80;94.30;;;;;;5048657;28;20128;-76
2023/02/27 00:37:28;;;;;;;4.40;2.75;;;-1.80;94.00;;;;;;5056475;28;20013;-78
2023/02/27 00:39:54;;;;;;;8.35;4.53;;;-1.80;93.80;;;;;;5055278;28;20435;-77
2023/02/27 00:42:21;;;;;;;6.47;4.80;;;-1.80;93.90;;;;;;5052951;28;20454;-78
2023/02/27 00:44:47;;;;;;;8.00;4.75;;;-1.80;93.90;;;;;;5033229;28;20025;-78
2023/02/27 00:47:13;;;;;;;6.18;3.78;;;-1.70;93.80;;;;;;5045689;28;20440;-78
2023/02/27 00:49:38;;;;;;;6.75;4.30;;;-1.80;93.60;;;;;;5049482;28;20067;-79
2023/02/27 00:52:04;;;;;;;5.68;4.05;;;-1.80;93.60;;;;;;5051871;28;20025;-79
2023/02/27 00:54:30;;;;;;;4.40;3.63;;;-1.80;93.60;;;;;;5026861;28;20080;-79
2023/02/27 00:56:56;;;;;;;7.18;4.53;;;-1.80;93.30;;;;;;5048060;28;20056;-80
2023/02/27 00:59:22;;;;;;;4.50;3.63;;;-1.80;93.40;;;;;;5052288;28;20017;-78
2023/02/27 01:01:48;;;;;;;4.43;2.90;;;-1.80;93.40;;;;;;5051487;28;20021;-79
2023/02/27 01:04:14;;;;;;;5.70;4.82;;;-1.80;93.10;;;;;;5045357;28;20514;-77
2023/02/27 01:06:40;;;;;;;6.57;4.13;;;-1.80;93.10;;;;;;5047472;28;20021;-79
2023/02/27 01:09:06;;;;;;;6.05;3.72;;;-1.80;93.00;;;;;;5048890;28;20104;-78
2023/02/27 01:11:32;;;;;;;5.43;3.70;;;-1.90;92.60;;;;;;5024611;28;20057;-77
2023/02/27 01:13:58;;;;;;;5.63;3.67;;;-1.90;92.70;;;;;;5045234;28;20049;-79
2023/02/27 01:16:24;;;;;;;4.80;4.30;;;-1.90;92.80;;;;;;5049573;28;20108;-78
2023/02/27 01:18:50;;;;;;;7.93;4.65;;;-1.90;92.80;;;;;;5046651;28;20027;-78
2023/02/27 01:21:16;;;;;;;6.97;3.92;;;-2.00;92.90;;;;;;5053670;28;20017;-77
2023/02/27 01:23:41;;;;;;;8.10;4.47;;;-1.90;93.10;;;;;;5028560;28;20117;-79
2023/02/27 01:26:07;;;;;;;5.68;3.58;;;-1.90;93.10;;;;;;5047751;28;20467;-78
2023/02/27 01:28:33;;;;;;;6.00;3.80;;;-1.90;93.20;;;;;;5051450;28;20081;-78
2023/02/27 01:30:59;;;;;;;7.03;3.80;;;-1.90;93.10;;;;;;5052049;28;20052;-78
2023/02/27 01:33:25;;;;;;;6.07;4.53;;;-1.90;93.00;;;;;;5033452;28;20036;-77
2023/02/27 01:35:51;;;;;;;6.30;5.05;;;-1.90;92.90;;;;;;5037779;28;20030;-78
2023/02/27 01:38:17;;;;;;;6.25;4.07;;;-2.00;92.80;;;;;;5033476;28;20079;-76
2023/02/27 01:40:43;;;;;;;9.70;5.65;;;-2.00;92.80;;;;;;5051159;28;20027;-77
2023/02/27 01:43:15;;;;;;;10.00;5.78;;;-2.10;92.70;;;;;;5051612;28;20031;-78
2023/02/27 01:45:46;;;;;;;5.55;4.47;;;-2.00;92.90;;;;;;5051635;28;20028;-78
2023/02/27 01:48:37;;;;;;;6.63;4.05;;;-2.10;92.80;;;;;;5052981;28;20105;-78
2023/02/27 01:51:10;;;;;;;7.50;4.85;;;-2.10;92.90;;;;;;5051639;28;20027;-76
2023/02/27 01:53:39;;;;;;;8.23;4.47;;;-2.00;93.00;;;;;;5052209;28;20121;-76
2023/02/27 01:56:11;;;;;;;8.52;5.25;;;-2.00;92.90;;;;;;5051998;28;20106;-78
2023/02/27 01:58:37;;;;;;;6.63;4.40;;;-2.00;93.00;;;;;;5051248;28;20440;-77
2023/02/27 02:01:03;;;;;;;7.88;5.22;;;-2.10;92.90;;;;;;5051144;28;20098;-76
2023/02/27 02:03:35;;;;;;;8.18;5.13;;;-2.10;92.90;;;;;;5051762;28;20025;-79
2023/02/27 02:06:04;;;;;;;6.95;3.47;;;-2.10;93.10;;;;;;5049462;28;20072;-77
2023/02/27 02:08:34;;;;;;;6.28;4.38;;;-2.10;93.20;;;;;;5055157;28;20032;-78
2023/02/27 02:11:00;;;;;;;11.45;6.45;;;-2.20;93.30;;;;;;5054782;28;20040;-77
2023/02/27 02:13:26;;;;;;;7.20;4.78;;;-2.20;93.30;;;;;;5054561;28;20053;-78
2023/02/27 02:16:16;;;;;;;7.72;5.25;;;-2.20;93.40;;;;;;5054884;28;20089;-79
2023/02/27 02:18:56;;;;;;;5.93;3.70;;;-2.20;93.40;;;;;;5036541;28;20056;-78
2023/02/27 02:21:52;;;;;;;6.07;4.78;;;-2.20;93.40;;;;;;5055000;28;20045;-78
2023/02/27 02:24:39;;;;;;;7.75;5.00;;;-2.20;93.50;;;;;;5054982;28;20024;-78
2023/02/27 02:27:41;;;;;;;7.35;5.28;;;-2.20;93.60;;;;;;5055380;28;20473;-78
2023/02/27 02:31:04;;;;;;;8.02;5.32;;;-2.20;93.60;;;;;;5061271;28;20029;-79
2023/02/27 02:33:53;;;;;;;6.75;4.28;;;-2.20;93.70;;;;;;4977430;28;20047;-80
2023/02/27 02:36:41;;;;;;;9.25;5.78;;;-2.20;93.70;;;;;;4967199;28;20023;-79
2023/02/27 02:39:22;;;;;;;8.05;5.10;;;-2.20;93.80;;;;;;5040720;28;20402;-77
2023/02/27 02:42:07;;;;;;;6.53;5.25;;;-2.20;93.80;;;;;;5060538;28;20112;-77
2023/02/27 02:44:44;;;;;;;10.48;5.82;;;-2.20;93.80;;;;;;5056021;28;20024;-78
2023/02/27 02:47:28;;;;;;;6.95;5.00;;;-2.20;93.90;;;;;;5058280;28;20351;-78
2023/02/27 02:49:54;;;;;;;7.35;5.30;;;-2.20;94.00;;;;;;5055940;28;20037;-77
2023/02/27 02:52:50;;;;;;;7.95;5.13;;;-2.10;94.00;;;;;;5054631;28;20059;-78
2023/02/27 02:55:41;;;;;;;5.80;4.50;;;-2.10;93.90;;;;;;5018587;28;20513;-76
2023/02/27 02:58:15;;;;;;;6.70;4.65;;;-2.10;94.00;;;;;;5058513;28;20109;-77
2023/02/27 03:01:16;;;;;;;7.80;5.18;;;-2.00;94.00;;;;;;5057729;28;20020;-78
2023/02/27 03:03:57;;;;;;;7.32;4.65;;;-2.00;94.00;;;;;;5037531;28;20033;-79
2023/02/27 03:06:36;;;;;;;9.23;5.20;;;-2.00;93.90;;;;;;5050252;28;20060;-78
2023/02/27 03:09:11;;;;;;;6.63;6.00;;;-2.10;93.80;;;;;;5054303;28;20109;-78
2023/02/27 03:11:41;;;;;;;8.75;5.85;;;-2.10;93.90;;;;;;5028457;28;20497;-77
2023/02/27 03:14:56;;;;;;;8.15;5.72;;;-2.10;93.90;;;;;;5057086;28;20091;-78
2023/02/27 03:17:35;;;;;;;6.32;4.07;;;-2.20;94.00;;;;;;5001606;28;20029;-77
2023/02/27 03:20:07;;;;;;;5.72;4.32;;;-2.20;94.00;;;;;;5054392;28;20504;-79
2023/02/27 03:22:40;;;;;;;9.00;6.28;;;-2.20;94.10;;;;;;5053722;28;20016;-77
2023/02/27 03:25:11;;;;;;;6.80;4.75;;;-2.20;94.20;;;;;;5046506;28;20394;-77
2023/02/27 03:27:43;;;;;;;6.55;5.15;;;-2.10;94.20;;;;;;5053561;28;20013;-78
2023/02/27 03:30:45;;;;;;;7.05;5.20;;;-2.10;94.20;;;;;;5052974;28;20474;-78
2023/02/27 03:33:20;;;;;;;7.63;5.13;;;-2.00;94.20;;;;;;5048102;28;20490;-76
2023/02/27 03:35:50;;;;;;;6.18;4.47;;;-2.10;94.10;;;;;;5050758;28;20028;-79
2023/02/27 03:38:39;;;;;;;8.07;4.93;;;-2.10;94.00;;;;;;5052187;28;20073;-79
2023/02/27 03:41:09;;;;;;;8.40;4.93;;;-2.10;94.10;;;;;;5031533;28;20453;-79
2023/02/27 03:43:59;;;;;;;8.90;6.00;;;-2.10;94.10;;;;;;5053531;28;20024;-78
2023/02/27 03:46:27;;;;;;;9.68;5.35;;;-2.10;94.10;;;;;;5053196;28;20553;-77
2023/02/27 03:48:52;;;;;;;8.13;5.60;;;-2.10;94.10;;;;;;5053059;28;20099;-79
2023/02/27 03:51:21;;;;;;;7.28;5.20;;;-2.10;94.10;;;;;;5053244;28;20109;-78
2023/02/27 03:54:05;;;;;;;8.68;5.32;;;-2.20;94.20;;;;;;5053019;28;20033;-77
2023/02/27 03:56:54;;;;;;;7.22;5.32;;;-2.20;94.30;;;;;;5051359;28;20429;-77
2023/02/27 03:59:22;;;;;;;8.75;3.83;;;-2.20;94.40;;;;;;5050824;28;20021;-78
2023/02/27 04:01:50;;;;;;;7.10;4.65;;;-2.20;94.30;;;;;;5034343;28;20082;-77
2023/02/27 04:04:17;;;;;;;7.80;5.10;;;-2.20;94.30;;;;;;5053063;28;20108;-77
2023/02/27 04:10:08;;;;;;;6.97;3.88;;;-2.20;94.40;;;;;;5053137;28;20027;-78
2023/02/27 04:12:49;;;;;;;9.25;5.93;;;-2.20;94.40;;;;;;5017997;28;20037;-77
2023/02/27 04:15:41;;;;;;;6.85;5.20;;;-2.30;94.30;;;;;;5054819;28;20083;-77
2023/02/27 04:18:27;;;;;;;10.10;5.30;;;-2.30;94.40;;;;;;5012939;28;20408;-77
2023/02/27 04:21:06;;;;;;;9.07;6.07;;;-2.30;94.50;;;;;;5051298;28;20032;-78
2023/02/27 04:23:44;;;;;;;9.38;6.38;;;-2.30;94.60;;;;;;5048967;28;20027;-78
2023/02/27 04:26:31;;;;;;;6.13;4.68;;;-2.30;94.70;;;;;;5053185;28;20021;-79
2023/02/27 04:29:15;;;;;;;6.75;5.13;;;-2.30;94.70;;;;;;5045668;28;20034;-78
2023/02/27 04:31:52;;;;;;;6.78;6.05;;;-2.30;94.70;;;;;;5051866;28;20370;-79
2023/02/27 04:34:28;;;;;;;7.57;5.05;;;-2.30;94.80;;;;;;5045789;28;20061;-78
2023/02/27 04:37:14;;;;;;;7.90;5.03;;;-2.30;94.70;;;;;;5041477;28;20013;-79
2023/02/27 04:40:00;;;;;;;10.25;6.32;;;-2.30;94.80;;;;;;5054987;28;20021;-78
2023/02/27 04:42:33;;;;;;;6.90;5.20;;;-2.30;94.90;;;;;;5058807;28;20433;-79
2023/02/27 04:45:03;;;;;;;7.68;6.28;;;-2.30;94.90;;;;;;5054520;28;20028;-77
2023/02/27 04:47:36;;;;;;;8.10;6.00;;;-2.30;94.80;;;;;;5055882;28;20382;-79
2023/02/27 04:50:15;;;;;;;9.10;6.75;;;-2.30;94.90;;;;;;5053149;28;20024;-78
2023/02/27 04:52:52;;;;;;;11.32;6.43;;;-2.30;94.90;;;;;;5052153;28;20449;-80
2023/02/27 04:55:25;;;;;;;7.10;4.55;;;-2.30;95.00;;;;;;5052734;28;20474;-80
2023/02/27 04:58:02;;;;;;;8.98;6.50;;;-2.30;94.90;;;;;;5052255;28;20060;-79
2023/02/27 05:00:31;;;;;;;9.85;5.53;;;-2.30;94.90;;;;;;5053387;28;20021;-81
2023/02/27 05:03:05;;;;;;;10.48;6.45;;;-2.30;95.00;;;;;;5053571;28;20032;-78
2023/02/27 05:05:34;;;;;;;8.35;6.18;;;-2.30;94.90;;;;;;5054861;28;20021;-79
2023/02/27 05:08:41;;;;;;;9.27;6.40;;;-2.20;95.00;;;;;;5051767;28;20029;-79
2023/02/27 05:11:29;;;;;;;7.85;6.28;;;-2.20;95.10;;;;;;5052242;28;20045;-79
2023/02/27 05:14:23;;;;;;;11.75;6.22;;;-2.30;94.90;;;;;;5055006;28;20040;-80
2023/02/27 05:17:00;;;;;;;7.72;5.60;;;-2.30;94.90;;;;;;5041099;28;20029;-80
2023/02/27 05:19:26;;;;;;;7.20;5.57;;;-2.30;95.00;;;;;;5060183;28;20021;-79
2023/02/27 05:22:18;;;;;;;8.75;5.80;;;-2.40;95.10;;;;;;5054160;28;20021;-79
2023/02/27 05:25:22;;;;;;;8.65;6.35;;;-2.40;95.30;;;;;;5033049;28;20029;-79
2023/02/27 05:27:55;;;;;;;9.30;6.60;;;-2.40;95.50;;;;;;5050817;28;20331;-79
2023/02/27 05:30:30;;;;;;;9.65;6.80;;;-2.40;95.60;;;;;;5049605;28;20055;-78
2023/02/27 05:33:17;;;;;;;10.20;6.93;;;-2.30;95.70;;;;;;5047381;28;20053;-79
2023/02/27 05:36:07;;;;;;;9.50;5.85;;;-2.20;95.80;;;;;;5046124;28;20099;-79
2023/02/27 05:38:38;;;;;;;10.07;6.53;;;-2.20;95.50;;;;;;5047382;28;20067;-80
2023/02/27 05:41:11;;;;;;;7.70;5.72;;;-2.20;95.50;;;;;;5052605;28;20031;-79
2023/02/27 05:43:41;;;;;;;9.02;6.22;;;-2.20;95.40;;;;;;5054629;28;20473;-79
2023/02/27 05:46:13;;;;;;;12.50;7.43;;;-2.30;95.40;;;;;;5055139;28;20060;-78
2023/02/27 05:48:46;;;;;;;12.30;7.57;;;-2.30;95.50;;;;;;5054552;28;20028;-79
2023/02/27 05:51:15;;;;;;;9.27;6.05;;;-2.30;95.60;;;;;;5043095;28;20047;-79
2023/02/27 05:53:52;;;;;;;10.48;6.88;;;-2.20;95.60;;;;;;5055312;28;20029;-76
2023/02/27 05:56:22;;;;;;;15.50;7.38;;;-2.10;95.60;;;;;;5042400;28;20025;-77
2023/02/27 05:59:13;;;;;;;11.80;8.02;;;-2.10;95.60;;;;;;5055664;28;20021;-77
2023/02/27 06:01:39;;;;;;;8.30;6.10;;;-2.10;95.50;;;;;;5046890;28;20044;-77
2023/02/27 06:04:05;;;;;;;10.35;7.20;;;-2.10;95.40;;;;;;5055483;28;20021;-78
2023/02/27 06:06:34;;;;;;;12.07;7.53;;;-2.10;95.50;;;;;;5055797;28;20016;-79
2023/02/27 06:08:59;;;;;;;10.20;6.75;;;-2.10;95.60;;;;;;5056467;28;20450;-80
2023/02/27 06:11:25;;;;;;;9.70;5.95;;;-2.10;95.60;;;;;;5055057;28;20049;-79
2023/02/27 06:13:51;;;;;;;13.15;6.57;;;-2.10;95.70;;;;;;5049787;28;20433;-79
2023/02/27 06:16:17;;;;;;;7.60;5.88;;;-2.10;95.60;;;;;;5052667;28;20032;-79
2023/02/27 06:18:43;;;;;;;10.27;6.18;;;-2.10;95.60;;;;;;5049022;28;20078;-81
2023/02/27 06:21:10;;;;;;;11.40;6.32;;;-2.00;95.70;;;;;;5055000;28;20422;-78
2023/02/27 06:23:36;;;;;;;11.43;8.23;;;-2.00;95.70;;;;;;5054839;28;20009;-79
2023/02/27 06:26:02;;;;;;;8.88;5.82;;;-2.10;95.50;;;;;;5054740;28;20032;-80
2023/02/27 06:28:28;;;;;;;10.40;6.38;;;-2.10;95.70;;;;;;5054980;28;20021;-79
2023/02/27 06:30:55;;;;;;;9.07;5.85;;;-2.10;95.80;;;;;;5054986;28;20579;-80
2023/02/27 06:33:23;;;;;;;10.73;5.68;;;-2.10;95.80;;;;;;5054936;28;20028;-79
2023/02/27 06:35:49;;;;;;;7.70;5.50;;;-2.10;96.00;;;;;;5053306;28;20024;-79
2023/02/27 06:38:15;;;;;;;10.98;5.95;;;-2.10;95.90;;;;;;5044953;28;20064;-77
2023/02/27 06:40:41;;;;;;;7.28;4.63;;;-2.10;95.90;;;;;;5070595;28;20017;-78
2023/02/27 06:43:07;;;;;;;8.57;6.35;;;-2.20;95.90;;;;;;5067372;28;20036;-78
2023/02/27 06:45:34;;;;;;;9.68;6.20;;;-2.20;96.00;;;;;;5037473;28;20090;-79
2023/02/27 06:48:00;;;;;;;8.23;5.10;;;-2.30;96.10;;;;;;5058491;28;20020;-79
2023/02/27 06:50:27;;;;;;;10.13;5.35;;;-2.30;96.10;;;;;;5060105;28;20029;-80
2023/02/27 06:52:53;;;;;;;9.57;6.05;;;-2.30;96.10;;;;;;5064150;28;20013;-79
2023/02/27 06:55:21;;;;;;;8.57;5.28;;;-2.20;96.20;;;;;;5057113;28;20752;-80
2023/02/27 06:57:47;;;;;;;8.73;5.70;;;-2.20;96.10;;;;;;5053458;28;20048;-78
2023/02/27 07:00:14;;;;;;;10.90;7.07;;;-2.20;96.20;;;;;;5056527;28;20092;-78
2023/02/27 07:02:41;;;;;;;11.63;6.75;;;-2.10;96.20;;;;;;5055274;28;20021;-78
2023/02/27 07:05:08;;;;;;;8.80;6.38;;;-2.10;96.20;;;;;;5054820;28;20033;-78
2023/02/27 07:07:34;;;;;;;8.48;5.45;;;-2.10;96.20;;;;;;5036004;28;20025;-80
2023/02/27 07:10:00;;;;;;;5.50;3.95;;;-2.10;96.10;;;;;;5054121;28;20033;-79
2023/02/27 07:12:26;;;;;;;9.43;5.60;;;-2.10;96.20;;;;;;5053274;28;20076;-79
2023/02/27 07:14:51;;;;;;;11.48;7.45;;;-2.10;96.20;;;;;;5047724;28;20029;-79
2023/02/27 07:17:17;;;;;;;7.60;4.90;;;-2.10;96.20;;;;;;5030078;28;20029;-79
2023/02/27 07:19:44;;;;;;;7.57;5.20;;;-2.00;96.30;;;;;;5054121;28;20086;-81
2023/02/27 07:22:10;;;;;;;9.68;5.85;;;-1.90;96.10;;;;;;5051265;28;20112;-78
2023/02/27 07:24:36;;;;;;;8.38;5.35;;;-1.90;96.10;;;;;;5049552;28;20055;-80
2023/02/27 07:27:02;;;;;;;11.52;6.20;;;-1.90;96.00;;;;;;5054783;28;20478;-79
2023/02/27 07:29:28;;;;;;;9.82;7.10;;;-2.00;95.90;;;;;;5038491;28;20060;-79
2023/02/27 07:31:54;;;;;;;9.75;6.25;;;-2.00;95.90;;;;;;5035823;28;20107;-79
2023/02/27 07:34:19;;;;;;;8.45;5.35;;;-1.90;96.10;;;;;;5033208;28;20037;-80
2023/02/27 07:36:45;;;;;;;9.25;5.22;;;-1.90;96.10;;;;;;5038437;28;20025;-79
2023/02/27 07:39:12;;;;;;;9.15;5.80;;;-1.90;95.90;;;;;;5044890;28;20045;-78
2023/02/27 07:41:38;;;;;;;7.70;4.97;;;-1.90;95.90;;;;;;5033798;28;20017;-79
2023/02/27 07:44:05;;;;;;;8.85;6.05;;;-2.00;95.80;;;;;;5030679;28;20082;-79
2023/02/27 07:46:32;;;;;;;8.10;4.60;;;-2.00;95.80;;;;;;5054719;28;20021;-78
2023/02/27 07:48:57;;;;;;;10.02;5.90;;;-1.90;95.80;;;;;;5041187;28;20040;-80
2023/02/27 07:51:23;;;;;;;9.20;5.03;;;-1.80;95.70;;;;;;5067582;28;20013;-79
2023/02/27 07:53:49;;;;;;;7.90;5.47;;;-1.70;95.90;;;;;;5053858;28;20047;-79
2023/02/27 07:56:15;;;;;;;7.95;5.72;;;-1.70;95.70;;;;;;5048954;28;20032;-78
2023/02/27 07:58:41;;;;;;;6.82;5.55;;;-1.70;95.50;;;;;;5035659;28;20363;-79
2023/02/27 08:01:07;;;;;;;9.32;5.75;;;-1.70;95.50;;;;;;5031534;28;20026;-80
2023/02/27 08:03:33;;;;;;;8.35;6.68;;;-1.60;95.60;;;;;;5048914;28;20021;-79
2023/02/27 08:05:58;;;;;;;9.68;5.57;;;-1.60;95.40;;;;;;5051105;28;20396;-80
2023/02/27 08:08:24;;;;;;;8.65;5.07;;;-1.60;95.50;;;;;;5051369;28;20052;-80
2023/02/27 08:10:50;;;;;;;8.25;5.78;;;-1.70;95.20;;;;;;5050371;28;20031;-78
2023/02/27 08:13:16;;;;;;;9.68;5.88;;;-1.70;95.40;;;;;;5050234;28;20048;-78
2023/02/27 08:15:42;;;;;;;8.52;4.45;;;-1.60;95.40;;;;;;5052265;28;20028;-78
2023/02/27 08:18:08;;;;;;;6.68;4.57;;;-1.50;95.30;;;;;;5049419;28;20074;-77
2023/02/27 08:20:35;;;;;;;6.85;5.13;;;-1.40;95.10;;;;;;5032534;28;20195;-79
2023/02/27 08:23:01;;;;;;;6.82;4.90;;;-1.50;94.60;;;;;;5051099;28;20032;-79
2023/02/27 08:25:29;;;;;;;7.22;5.57;;;-1.50;94.50;;;;;;5043784;28;20036;-79
2023/02/27 08:27:55;;;;;;;5.63;4.53;;;-1.50;94.70;;;;;;5035100;28;20419;-79
2023/02/27 08:30:21;;;;;;;6.65;4.65;;;-1.40;94.60;;;;;;5049468;28;20036;-80
2023/02/27 08:32:47;;;;;;;6.25;4.30;;;-1.50;94.60;;;;;;5045382;28;20017;-78
2023/02/27 08:35:13;;;;;;;6.18;3.97;;;-1.50;94.50;;;;;;5052411;28;20055;-79
2023/02/27 08:37:39;;;;;;;6.68;5.20;;;-1.60;94.30;;;;;;5054270;28;20092;-78
2023/02/27 08:40:07;;;;;;;5.57;3.13;;;-1.60;94.60;;;;;;5043171;28;20494;-78
2023/02/27 08:42:33;;;;;;;6.57;4.95;;;-1.50;94.50;;;;;;5042198;28;20025;-78
2023/02/27 08:44:59;;;;;;;7.00;3.67;;;-1.60;94.20;;;;;;5056188;28;20128;-79
2023/02/27 08:47:25;;;;;;;8.38;5.75;;;-1.60;94.20;;;;;;5059777;28;20055;-79
2023/02/27 08:49:51;;;;;;;8.48;4.70;;;-1.70;94.40;;;;;;5059015;28;20030;-80
2023/02/27 08:52:17;;;;;;;11.38;6.18;;;-1.60;94.50;;;;;;5037453;28;20025;-78
2023/02/27 08:54:43;;;;;;;6.90;5.13;;;-1.60;94.20;;;;;;5051423;28;20037;-78
2023/02/27 08:57:09;;;;;;;8.77;5.40;;;-1.50;94.30;;;;;;5053787;28;20393;-78
2023/02/27 08:59:35;;;;;;;7.97;4.82;;;-1.40;94.30;;;;;;5051599;28;20044;-79
2023/02/27 09:02:01;;;;;;;7.35;5.35;;;-1.30;94.20;;;;;;5042506;28;20076;-78
2023/02/27 09:04:27;;;;;;;9.38;4.60;;;-1.30;94.10;;;;;;5022286;28;20508;-78
2023/02/27 09:06:53;;;;;;;5.90;3.83;;;-1.30;93.90;;;;;;5044274;28;20056;-79
2023/02/27 09:09:19;;;;;;;6.55;4.03;;;-1.30;94.00;;;;;;5041450;28;20047;-80
2023/02/27 09:11:45;;;;;;;7.55;4.68;;;-1.30;94.00;;;;;;5043773;28;20017;-81
2023/02/27 09:14:12;;;;;;;9.57;5.82;;;-1.40;93.70;;;;;;5046481;28;20045;-80
2023/02/27 09:16:38;;;;;;;8.70;4.55;;;-1.40;93.80;;;;;;5045814;28;20043;-81
2023/02/27 09:19:04;;;;;;;5.43;3.72;;;-1.40;93.70;;;;;;5046681;28;20037;-81
2023/02/27 09:21:31;;;;;;;6.90;4.47;;;-1.30;93.90;;;;;;5053399;28;20363;-80
2023/02/27 09:23:59;;;;;;;7.50;5.82;;;-1.20;93.60;;;;;;5044968;28;20429;-82
2023/02/27 09:26:25;;;;;;;6.00;4.07;;;-1.20;93.40;;;;;;5035103;28;20151;-80
2023/02/27 09:28:51;;;;;;;6.80;5.03;;;-1.30;93.50;;;;;;5027274;28;20025;-80
2023/02/27 09:31:17;;;;;;;7.40;4.55;;;-1.30;93.50;;;;;;5034625;28;20021;-81
2023/02/27 09:33:46;;;;;;;6.45;3.65;;;-1.40;93.50;;;;;;5052683;28;20037;-79
2023/02/27 09:36:12;;;;;;;6.22;4.47;;;-1.40;93.40;;;;;;5037226;28;20471;-80
2023/02/27 09:38:38;;;;;;;8.57;4.75;;;-1.40;93.20;;;;;;5049280;28;20040;-80
2023/02/27 09:41:05;;;;;;;8.50;4.15;;;-1.50;93.00;;;;;;5052168;28;20025;-79
2023/02/27 09:43:44;;;;;;;7.78;5.43;;;-1.40;93.20;;;;;;5054337;28;20025;-79
2023/02/27 09:46:20;;;;;;;6.03;4.47;;;-1.40;93.20;;;;;;5040605;28;20029;-81
2023/02/27 09:48:52;;;;;;;6.50;4.43;;;-1.20;93.10;;;;;;5055139;28;20017;-80
2023/02/27 09:51:19;;;;;;;6.00;4.40;;;-1.10;93.00;;;;;;5053994;28;20028;-83
2023/02/27 09:53:48;;;;;;;7.17;3.97;;;-1.10;92.60;;;;;;5027692;28;20090;-84
2023/02/27 09:56:41;;;;;;;7.63;5.05;;;-1.20;92.40;;;;;;5055910;28;20358;-84
2023/02/27 09:59:34;;;;;;;7.97;4.68;;;-1.20;92.60;;;;;;5064012;28;20017;-83
2023/02/27 10:02:28;;;;;;;5.38;3.90;;;-1.10;92.50;;;;;;5056835;28;20028;-84
2023/02/27 10:05:29;;;;;;;7.13;4.55;;;-1.10;92.40;;;;;;5037195;28;20371;-81
2023/02/27 10:08:20;;;;;;;8.55;4.10;;;-1.00;92.40;;;;;;5066331;28;20010;-82
2023/02/27 10:10:59;;;;;;;5.80;3.97;;;-1.00;92.20;;;;;;5051129;28;20021;-82
2023/02/27 10:13:55;;;;;;;7.25;4.85;;;-1.00;91.90;;;;;;5051655;28;20075;-85
2023/02/27 10:16:23;;;;;;;4.43;3.33;;;-1.00;92.00;;;;;;5044296;28;20034;-85
2023/02/27 10:19:00;;;;;;;8.35;4.85;;;-1.00;91.60;;;;;;5028102;28;20049;-84
2023/02/27 10:21:32;;;;;;;;;;;-1.00;91.40;;;;;;5042490;28;20030;-83
2023/02/27 10:24:14;;;;;;;5.43;3.92;;;-1.00;91.60;;;;;;5056018;28;19912;-83
2023/02/27 10:26:42;;;;;;;6.03;4.30;;;-1.00;91.60;;;;;;5073574;28;20036;-84
2023/02/27 10:29:23;;;;;;;9.40;5.00;;;-1.10;91.60;;;;;;5062147;28;20021;-83
2023/02/27 10:32:17;;;;;;;7.13;4.72;;;-1.10;91.70;;;;;;5062872;28;20021;-83
2023/02/27 10:34:50;;;;;;;7.88;4.07;;;-1.10;91.90;;;;;;5040835;28;20037;-82
2023/02/27 10:37:19;;;;;;;10.90;5.75;;;-1.10;91.80;;;;;;5072637;28;20028;-84
2023/02/27 10:39:50;;;;;;;6.57;4.60;;;-1.10;92.20;;;;;;5056407;28;20013;-85
2023/02/27 10:42:17;;;;;;;6.97;4.60;;;-1.10;92.40;;;;;;5068585;28;20024;-83
2023/02/27 10:44:43;;;;;;;10.75;4.78;;;-1.10;92.60;;;;;;5030281;28;20042;-85
2023/02/27 10:47:16;;;;;;;7.07;4.75;;;-1.00;92.80;;;;;;5041555;28;20381;-86
2023/02/27 10:49:42;;;;;;;7.22;4.78;;;-0.90;92.70;;;;;;5060566;28;20053;-83
2023/02/27 10:52:12;;;;;;;6.87;5.43;;;-0.90;92.70;;;;;;5061946;28;20095;-87
2023/02/27 10:54:39;;;;;;;6.72;5.20;;;-0.90;93.10;;;;;;5060968;28;20082;-87
2023/02/27 10:57:42;;;;;;;5.63;3.93;;;-0.90;93.40;;;;;;5061946;28;20045;-85
2023/02/27 11:00:34;;;;;;;6.57;4.20;;;-0.80;93.50;;;;;;5053735;28;20025;-86
2023/02/27 11:03:00;;;;;;;7.28;3.92;;;-0.80;93.10;;;;;;5046917;28;20184;-88
2023/02/27 11:05:32;;;;;;;8.67;6.13;;;-0.90;93.10;;;;;;5042516;28;20029;-84
2023/02/27 11:08:25;;;;;;;7.72;5.25;;;-0.90;93.20;;;;;;5039984;28;20307;-84
2023/02/27 11:10:53;;;;;;;7.22;4.28;;;-0.70;93.40;;;;;;5058887;28;20025;-86
2023/02/27 11:13:21;;;;;;;5.38;3.85;;;-0.70;93.10;;;;;;5057012;28;20502;-86
2023/02/27 11:16:03;;;;;;;6.60;4.50;;;-0.70;93.00;;;;;;5057213;28;20049;-87
2023/02/27 11:18:30;;;;;;;7.63;4.13;;;-0.70;93.00;;;;;;5057909;28;20474;-87
2023/02/27 11:21:37;;;;;;;7.40;5.63;;;-0.80;93.00;;;;;;5040015;28;20026;-86
2023/02/27 11:24:17;;;;;;;6.38;4.68;;;-0.80;93.00;;;;;;5050238;28;20036;-86
2023/02/27 11:26:55;;;;;;;7.25;4.00;;;-0.80;93.00;;;;;;5040604;28;20139;-82
2023/02/27 11:29:21;;;;;;;9.73;4.75;;;-0.80;93.20;;;;;;5035221;28;20017;-82
2023/02/27 11:31:50;;;;;;;7.50;4.70;;;-0.90;93.50;;;;;;5046469;28;20025;-87
2023/02/27 11:34:38;;;;;;;7.38;4.80;;;-1.00;94.20;;;;;;5051246;28;20088;-84
2023/02/27 11:37:18;;;;;;;6.32;5.10;;;-1.10;94.40;;;;;;5061226;28;20039;-85
2023/02/27 11:39:54;;;;;;;6.00;4.32;;;-1.10;94.50;;;;;;5061159;28;20029;-84
2023/02/27 11:42:31;;;;;;;7.65;4.75;;;-1.30;94.60;;;;;;5057126;28;20086;-83
2023/02/27 11:45:07;;;;;;;7.60;5.53;;;-1.40;94.90;;;;;;5044159;28;20389;-83
2023/02/27 11:47:42;;;;;;;9.35;5.68;;;-1.40;95.10;;;;;;5044723;28;20017;-85
2023/02/27 11:50:39;;;;;;;7.72;5.28;;;-1.50;95.40;;;;;;5058156;28;20449;-84
2023/02/27 11:53:24;;;;;;;;;;;-1.50;95.60;;;;;;5056512;28;20032;-84
2023/02/27 11:55:54;;;;;;;6.90;4.05;;;-1.50;95.40;;;;;;5061140;28;20400;-83
2023/02/27 11:58:24;;;;;;;5.78;3.97;;;-1.60;95.50;;;;;;5053726;28;20024;-85
2023/02/27 12:00:57;;;;;;;8.18;5.03;;;-1.70;95.60;;;;;;5050752;28;20113;-83
2023/02/27 12:03:47;;;;;;;7.93;5.60;;;-1.80;95.60;;;;;;5049752;28;20096;-83
2023/02/27 12:06:22;;;;;;;9.20;5.55;;;-1.70;95.90;;;;;;5049160;28;20406;-84
2023/02/27 12:08:59;;;;;;;6.00;4.78;;;-1.80;95.80;;;;;;5050406;28;20017;-82
2023/02/27 12:11:39;;;;;;;6.80;5.63;;;-1.70;95.70;;;;;;5051245;28;20017;-83
2023/02/27 12:14:13;;;;;;;7.93;4.53;;;-1.80;95.50;;;;;;5032743;28;20128;-85
2023/02/27 12:16:42;;;;;;;6.47;3.42;;;-1.90;94.30;;;;;;5053700;28;20021;-85
2023/02/27 12:19:18;;;;;;;7.97;3.95;;;-1.90;93.80;;;;;;5063182;28;20051;-86
2023/02/27 12:21:55;;;;;;;5.93;3.78;;;-1.90;93.60;;;;;;5047900;28;20040;-82
2023/02/27 12:24:30;;;;;;;7.03;4.10;;;-1.90;92.90;;;;;;5044084;28;20032;-85
2023/02/27 12:27:17;;;;;;;5.30;3.75;;;-1.90;92.60;;;;;;5043597;28;20039;-82
2023/02/27 12:29:50;;;;;;;7.45;4.43;;;-1.90;92.20;;;;;;5055715;28;20021;-81
2023/02/27 12:32:39;;;;;;;11.32;5.22;;;-1.90;92.10;;;;;;5058719;28;20074;-85
2023/02/27 12:35:28;;;;;;;6.82;4.82;;;-1.80;92.30;;;;;;5053150;28;20040;-84
2023/02/27 12:37:56;;;;;;;7.95;4.55;;;-1.70;92.40;;;;;;5037282;28;20036;-82
2023/02/27 12:40:45;;;;;;;9.80;5.10;;;-1.70;92.30;;;;;;5036622;28;20025;-80
2023/02/27 12:43:23;;;;;;;6.78;4.25;;;-1.60;92.40;;;;;;5043105;28;20028;-82
2023/02/27 12:46:03;;;;;;;6.22;3.33;;;-1.60;92.30;;;;;;5056236;28;20017;-86
2023/02/27 12:48:39;;;;;;;7.20;3.88;;;-1.70;92.20;;;;;;5057939;28;20023;-82
2023/02/27 12:51:20;;;;;;;6.97;4.78;;;-1.70;92.30;;;;;;5058847;28;20029;-83
2023/02/27 12:53:59;;;;;;;10.30;4.65;;;-1.70;92.40;;;;;;5062431;28;20056;-82
2023/02/27 12:56:40;;;;;;;8.10;4.68;;;-1.70;92.30;;;;;;5062623;28;20032;-82
2023/02/27 12:59:16;;;;;;;6.65;4.40;;;-1.70;92.40;;;;;;5051497;28;20035;-83
2023/02/27 13:02:16;;;;;;;5.00;3.55;;;-1.70;92.20;;;;;;5066680;28;20441;-83
2023/02/27 13:04:55;;;;;;;4.80;3.70;;;-1.60;91.90;;;;;;5058642;28;20087;-83
2023/02/27 13:07:34;;;;;;;6.18;4.20;;;-1.60;92.10;;;;;;5034733;28;20039;-82
2023/02/27 13:10:33;;;;;;;8.40;4.47;;;-1.60;92.20;;;;;;5050987;28;20028;-80
2023/02/27 13:13:30;;;;;;;6.03;4.18;;;-1.60;92.30;;;;;;5041560;28;20147;-83
2023/02/27 13:16:23;;;;;;;9.10;4.45;;;-1.60;91.90;;;;;;5054636;28;20064;-85
2023/02/27 13:19:14;;;;;;;5.72;4.10;;;-1.70;91.90;;;;;;5045027;28;20040;-85
2023/02/27 13:21:51;;;;;;;8.70;4.80;;;-1.70;92.00;;;;;;4949350;29;20126;-79